< Cyclone 197407 1974 Season Cyclone 197409 >
Cyclone 197408 (ERICA)
General InformationTrack Information on Google Maps || ResourceGoogle EarthGE AnimationAtom FeedGeoJSON
Detalied Best Track (Time Zone = UTC)
Year Month Day Hour Lat. Long. Pressure (hPa) Wind (kt) Class Image Chart
1973 12 29 01 -17.8 118.7 999 0 0 -- --
1973 12 29 04 -17.6 118.3 999 0 0 -- --
1973 12 29 07 -17.5 118.3 997 0 0 -- --
1973 12 29 10 -17.4 118.6 998 0 0 -- --
1973 12 29 13 -17.4 118.7 999 0 0 -- --
1973 12 29 16 -17.4 118.8 1000 0 0 -- --
1973 12 29 22 -17.5 118.9 998 0 0 -- --
1973 12 30 01 -17.3 119.2 999 0 0 -- --
1973 12 30 04 -17.2 119.0 995 0 0 -- --
1973 12 30 07 -17.6 119.0 991 0 0 -- --
1973 12 30 10 -17.8 118.9 989 0 0 -- --
1973 12 30 13 -17.9 118.9 987 0 0 -- --
1973 12 30 16 -18.1 118.7 985 0 0 -- --
1973 12 30 19 -18.2 118.6 982 0 0 -- --
1973 12 30 22 -18.4 118.3 980 0 0 -- --
1973 12 31 01 -18.7 118.0 980 0 0 -- --
1973 12 31 04 -18.9 118.0 979 0 0 -- --
1973 12 31 07 -19.1 118.0 977 0 0 -- --
1973 12 31 10 -19.1 117.8 977 0 0 -- --
1973 12 31 13 -19.9 117.1 982 0 0 -- --
1973 12 31 16 -20.4 116.3 985 0 0 -- --
1973 12 31 19 -21.2 115.4 986 0 0 -- --
1973 12 31 22 -22.1 114.7 987 0 0 -- --
1974 1 1 01 -22.7 114.0 988 0 0 -- --
1974 1 1 04 -22.9 113.7 988 0 0 -- --
1974 1 1 07 -23.0 113.4 987 0 0 -- --
1974 1 1 10 -23.1 113.1 988 0 0 -- --
1974 1 1 13 -23.2 112.8 991 0 0 -- --
1974 1 1 16 -23.3 112.3 993 0 0 -- --
1974 1 1 19 -23.3 111.8 993 0 0 -- --
1974 1 1 22 -23.3 111.2 994 0 0 -- --
1974 1 2 01 -23.3 110.6 994 0 0 -- --
1974 1 2 04 -23.1 110.0 994 0 0 -- --
1974 1 2 07 -22.9 109.4 994 0 0 -- --
1974 1 2 10 -22.6 108.8 996 0 0 -- --
1974 1 2 13 -22.3 108.2 999 0 0 -- --
1974 1 2 16 -22.1 107.6 1002 0 0 -- --
1974 1 2 19 -21.9 106.9 1001 0 0 -- --
1974 1 2 22 -21.7 106.2 1002 0 0 -- --
1974 1 3 01 -21.3 105.6 1003 0 0 -- --
1974 1 3 04 -21.3 105.6 1003 0 0 -- --
1974 1 3 07 -20.9 104.5 1002 0 0 -- --
1974 1 3 10 -20.7 104.0 1003 0 0 -- --
1974 1 3 13 -20.4 103.4 1006 0 0 -- --
1974 1 3 16 -20.2 102.9 1008 0 0 -- --
1974 1 3 19 -19.9 102.3 1007 0 0 -- --
1974 1 3 22 -19.6 101.8 1007 0 0 -- --
1974 1 4 01 -19.4 101.3 1008 0 0 -- --
1974 1 4 04 -19.1 100.7 1008 0 0 -- --
1974 1 4 07 -18.9 100.0 1006 0 0 -- --
1974 1 4 10 -18.7 99.3 1006 0 0 -- --
1974 1 4 13 -18.5 98.7 1007 0 0 -- --
1974 1 4 16 -18.3 98.0 1007 0 0 -- --
1974 1 4 19 -18.1 97.4 1007 0 0 -- --
1974 1 4 22 -18.0 96.7 1009 0 0 -- --
1974 1 5 01 -17.9 96.0 1011 0 0 -- --
< Cyclone 197407 1974 Season Cyclone 197409 >

Help